createdAt,value
2019-03-09T00:00:43.969Z,100314.17
2019-03-09T00:03:12.245Z,100309.38
2019-03-09T00:05:40.538Z,100296.37
2019-03-09T00:08:08.809Z,100289.84
2019-03-09T00:10:37.104Z,100283.75
2019-03-09T00:13:05.537Z,100276.55
2019-03-09T00:15:33.843Z,100275.53
2019-03-09T00:18:02.083Z,100263.81
2019-03-09T00:20:30.355Z,100255.53
2019-03-09T00:23:06.226Z,100245.28
2019-03-09T00:25:36.421Z,100240.70
2019-03-09T00:28:06.321Z,100239.92
2019-03-09T00:30:51.891Z,100238.05
2019-03-09T00:33:20.478Z,100230.91
2019-03-09T00:35:48.948Z,100226.58
2019-03-09T00:38:17.241Z,100219.85
2019-03-09T00:40:45.511Z,100207.28
2019-03-09T00:43:13.870Z,100207.53
2019-03-09T00:45:42.145Z,100211.69
2019-03-09T00:48:10.425Z,100200.98
2019-03-09T00:50:38.685Z,100197.43
2019-03-09T00:53:06.967Z,100182.66
2019-03-09T00:55:35.230Z,100181.19
2019-03-09T00:58:03.523Z,100174.58
2019-03-09T01:00:31.801Z,100173.91
2019-03-09T01:03:00.074Z,100167.62
2019-03-09T01:05:28.360Z,100166.00
2019-03-09T01:07:56.627Z,100162.31
2019-03-09T01:10:24.895Z,100159.33
2019-03-09T01:12:53.152Z,100155.31
2019-03-09T01:15:21.443Z,100144.75
2019-03-09T01:17:49.722Z,100132.30
2019-03-09T01:20:18.005Z,100132.37
2019-03-09T01:22:46.292Z,100122.71
2019-03-09T01:25:14.832Z,100113.31
2019-03-09T01:27:43.093Z,100103.33
2019-03-09T01:30:14.023Z,100092.08
2019-03-09T01:32:42.295Z,100088.77
2019-03-09T01:35:10.568Z,100087.60
2019-03-09T01:37:38.835Z,100075.55
2019-03-09T01:40:10.405Z,100060.25
2019-03-09T01:42:38.671Z,100051.61
2019-03-09T01:45:12.441Z,100037.67
2019-03-09T01:47:40.767Z,100039.79
2019-03-09T01:50:10.599Z,100037.94
2019-03-09T01:52:38.943Z,100032.08
2019-03-09T01:55:11.597Z,100022.69
2019-03-09T01:57:39.858Z,100017.50
2019-03-09T02:00:13.219Z,100006.55
2019-03-09T02:02:41.493Z,99993.08
2019-03-09T02:05:09.843Z,99991.64
2019-03-09T02:07:38.159Z,99968.13
2019-03-09T02:10:08.431Z,99966.20
2019-03-09T02:12:36.702Z,99958.59
2019-03-09T02:15:08.105Z,99944.81
2019-03-09T02:17:36.374Z,99936.91
2019-03-09T02:20:07.787Z,99933.52
2019-03-09T02:22:36.053Z,99930.44
2019-03-09T02:25:06.624Z,99923.61
2019-03-09T02:27:34.901Z,99914.16
2019-03-09T02:30:03.904Z,99906.77
2019-03-09T02:32:32.173Z,99892.80
2019-03-09T02:35:00.612Z,99882.81
2019-03-09T02:37:28.884Z,99873.92
2019-03-09T02:39:58.809Z,99870.03
2019-03-09T02:42:27.092Z,99859.03
2019-03-09T02:44:55.372Z,99856.23
2019-03-09T02:47:23.657Z,99853.01
2019-03-09T02:49:51.925Z,99847.44
2019-03-09T02:52:20.183Z,99837.67
2019-03-09T02:54:48.462Z,99831.05
2019-03-09T02:57:16.749Z,99826.39
2019-03-09T02:59:45.033Z,99820.78
2019-03-09T03:02:17.897Z,99814.80
2019-03-09T03:04:46.205Z,99811.13
2019-03-09T03:07:14.462Z,99806.92
2019-03-09T03:09:42.731Z,99803.80
2019-03-09T03:12:11.045Z,99790.27
2019-03-09T03:14:39.302Z,99777.06
2019-03-09T03:17:07.574Z,99773.95
2019-03-09T03:19:35.846Z,99768.52
2019-03-09T03:22:04.104Z,99763.27
2019-03-09T03:24:32.382Z,99756.48
2019-03-09T03:27:00.646Z,99745.07
2019-03-09T03:29:28.911Z,99734.78
2019-03-09T03:31:57.186Z,99730.20
2019-03-09T03:34:25.492Z,99715.81
2019-03-09T03:36:53.797Z,99705.77
2019-03-09T03:39:22.086Z,99697.51
2019-03-09T03:41:50.336Z,99689.07
2019-03-09T03:44:18.613Z,99671.78
2019-03-09T03:46:46.881Z,99671.19
2019-03-09T03:49:15.761Z,99663.41
2019-03-09T03:51:44.024Z,99664.56
2019-03-09T03:54:12.291Z,99652.80
2019-03-09T03:56:40.582Z,99644.65
2019-03-09T03:59:08.928Z,99632.47
2019-03-09T04:01:37.247Z,99632.19
2019-03-09T04:04:05.526Z,99626.83
2019-03-09T04:06:33.858Z,99616.84
2019-03-09T04:09:02.143Z,99607.17
2019-03-09T04:11:30.496Z,99607.88
2019-03-09T04:13:58.826Z,99587.67
2019-03-09T04:16:27.103Z,99579.22
2019-03-09T04:18:55.386Z,99579.14
2019-03-09T04:21:23.635Z,99578.45
2019-03-09T04:23:51.917Z,99566.27
2019-03-09T04:26:20.182Z,99550.65
2019-03-09T04:28:48.476Z,99549.28
2019-03-09T04:31:16.748Z,99553.09
2019-03-09T04:33:45.013Z,99536.44
2019-03-09T04:36:13.311Z,99534.61
2019-03-09T04:38:41.579Z,99530.72
2019-03-09T04:41:09.866Z,99519.98
2019-03-09T04:43:38.989Z,99515.02
2019-03-09T04:46:07.272Z,99507.78
2019-03-09T04:48:35.565Z,99502.75
2019-03-09T04:51:03.822Z,99506.09
2019-03-09T04:53:32.093Z,99505.18
2019-03-09T04:56:00.366Z,99493.36
2019-03-09T04:58:28.631Z,99488.36
2019-03-09T05:00:56.914Z,99480.59
2019-03-09T05:03:25.182Z,99484.40
2019-03-09T05:05:53.532Z,99479.44
2019-03-09T05:08:30.500Z,99483.45
2019-03-09T05:11:02.003Z,99483.45
2019-03-09T05:13:33.409Z,99471.06
2019-03-09T05:16:01.679Z,99480.27
2019-03-09T05:18:29.951Z,99479.73
2019-03-09T05:20:58.209Z,99487.73
2019-03-09T05:23:26.492Z,99485.34
2019-03-09T05:25:54.816Z,99488.42
2019-03-09T05:28:23.089Z,99495.88
2019-03-09T05:30:51.354Z,99491.85
2019-03-09T05:33:19.621Z,99509.00
2019-03-09T05:35:47.880Z,99505.22
2019-03-09T05:38:16.147Z,99500.86
2019-03-09T05:40:44.420Z,99514.80
2019-03-09T05:43:12.677Z,99516.48
2019-03-09T05:45:40.966Z,99493.88
2019-03-09T05:48:09.237Z,99490.28
2019-03-09T05:50:37.515Z,99492.51
2019-03-09T05:53:08.372Z,99498.98
2019-03-09T05:55:36.671Z,99491.37
2019-03-09T05:58:04.923Z,99520.45
2019-03-09T06:00:34.213Z,99509.45
2019-03-09T06:03:02.476Z,99501.58
2019-03-09T06:05:35.550Z,99512.34
2019-03-09T06:08:04.148Z,99508.36
2019-03-09T06:10:32.415Z,99503.09
2019-03-09T06:13:00.696Z,99511.71
2019-03-09T06:15:28.964Z,99506.44
2019-03-09T06:17:57.259Z,99514.48
2019-03-09T06:20:25.547Z,99511.97
2019-03-09T06:22:53.814Z,99511.80
2019-03-09T06:25:22.087Z,99501.89
2019-03-09T06:27:50.344Z,99512.56
2019-03-09T06:30:18.669Z,99515.53
2019-03-09T06:33:15.390Z,99526.29
2019-03-09T06:35:43.959Z,99520.80
2019-03-09T06:38:30.029Z,99513.77
2019-03-09T06:41:03.011Z,99538.83
2019-03-09T06:43:28.284Z,99543.55
2019-03-09T06:45:56.546Z,99544.56
2019-03-09T06:48:24.821Z,99551.05
2019-03-09T06:50:53.076Z,99554.77
2019-03-09T06:53:21.345Z,99569.26
2019-03-09T06:55:49.613Z,99571.02
2019-03-09T06:58:17.876Z,99578.36
2019-03-09T07:00:46.132Z,99578.26
2019-03-09T07:03:14.403Z,99591.02
2019-03-09T07:05:42.684Z,99590.09
2019-03-09T07:08:10.950Z,99584.31
2019-03-09T07:10:39.225Z,99610.56
2019-03-09T07:13:07.487Z,99626.05
2019-03-09T07:15:40.539Z,99622.94
2019-03-09T07:18:11.036Z,99625.53
2019-03-09T07:20:39.310Z,99630.27
2019-03-09T07:23:07.587Z,99628.80
2019-03-09T07:25:35.844Z,99639.86
2019-03-09T07:28:09.792Z,99639.11
2019-03-09T07:30:38.067Z,99645.00
2019-03-09T07:33:06.422Z,99637.97
2019-03-09T07:35:34.697Z,99635.83
2019-03-09T07:38:03.781Z,99643.22
2019-03-09T07:40:32.055Z,99643.75
2019-03-09T07:43:00.296Z,99656.65
2019-03-09T07:45:28.563Z,99659.95
2019-03-09T07:47:56.837Z,99655.30
2019-03-09T07:50:25.111Z,99666.55
2019-03-09T07:52:53.378Z,99662.66
2019-03-09T07:55:22.386Z,99667.61
2019-03-09T07:57:50.712Z,99667.91
2019-03-09T08:00:20.207Z,99668.66
2019-03-09T08:02:48.711Z,99677.21
2019-03-09T08:05:17.241Z,99678.59
2019-03-09T08:07:45.568Z,99677.45
2019-03-09T08:10:19.887Z,99681.73
2019-03-09T08:12:48.144Z,99675.08
2019-03-09T08:15:22.893Z,99680.35
2019-03-09T08:17:51.165Z,99673.94
2019-03-09T08:20:21.708Z,99675.45
2019-03-09T08:22:49.975Z,99679.91
2019-03-09T08:25:22.612Z,99681.03
2019-03-09T08:27:50.887Z,99681.25
2019-03-09T08:30:26.404Z,99678.86
2019-03-09T08:32:54.665Z,99680.83
2019-03-09T08:35:23.024Z,99692.06
2019-03-09T08:37:51.693Z,99679.78
2019-03-09T08:40:22.636Z,99699.14
2019-03-09T08:42:50.919Z,99693.65
2019-03-09T08:45:20.316Z,99692.02
2019-03-09T08:47:52.462Z,99703.71
2019-03-09T08:50:22.523Z,99700.02
2019-03-09T08:52:50.906Z,99705.52
2019-03-09T08:55:19.256Z,99698.06
2019-03-09T08:57:47.478Z,99692.57
2019-03-09T09:00:23.740Z,99692.83
2019-03-09T09:02:51.965Z,99696.45
2019-03-09T09:05:20.261Z,99722.09
2019-03-09T09:07:48.567Z,99747.91
2019-03-09T09:10:16.840Z,99764.49
2019-03-09T09:12:45.722Z,99784.34
2019-03-09T09:15:15.455Z,99784.25
2019-03-09T09:17:43.736Z,99766.02
2019-03-09T09:20:20.496Z,99769.08
2019-03-09T09:22:48.780Z,99769.99
2019-03-09T09:25:17.122Z,99757.39
2019-03-09T09:27:45.381Z,99766.02
2019-03-09T09:30:24.758Z,99768.53
2019-03-09T09:32:53.017Z,99787.00
2019-03-09T09:35:21.427Z,99796.19
2019-03-09T09:37:49.751Z,99799.22
2019-03-09T09:40:26.838Z,99797.97
2019-03-09T09:42:55.185Z,99790.96
2019-03-09T09:45:23.639Z,99790.06
2019-03-09T09:47:51.913Z,99784.62
2019-03-09T09:50:20.168Z,99780.75
2019-03-09T09:52:54.694Z,99777.34
2019-03-09T09:58:08.065Z,99797.86
2019-03-09T10:00:36.371Z,99796.69
2019-03-09T10:03:04.615Z,99811.50
2019-03-09T10:05:32.879Z,99808.59
2019-03-09T10:08:01.137Z,99811.61
2019-03-09T10:10:29.969Z,99802.82
2019-03-09T10:12:58.326Z,99798.97
2019-03-09T10:15:34.194Z,99797.66
2019-03-09T10:18:02.466Z,99804.84
2019-03-09T10:20:30.743Z,99803.16
2019-03-09T10:23:03.989Z,99781.39
2019-03-09T10:25:28.991Z,99808.00
2019-03-09T10:27:57.249Z,99801.58
2019-03-09T10:30:25.904Z,99798.59
2019-03-09T10:32:54.151Z,99825.66
2019-03-09T10:35:22.602Z,99813.89
2019-03-09T10:38:07.328Z,99829.17
2019-03-09T10:40:39.678Z,99856.13
2019-03-09T10:43:08.497Z,99873.65
2019-03-09T10:45:36.995Z,99876.11
2019-03-09T10:48:05.246Z,99878.30
2019-03-09T10:50:33.508Z,99878.06
2019-03-09T10:53:01.782Z,99881.69
2019-03-09T10:55:33.969Z,99880.50
2019-03-09T10:58:02.247Z,99870.77
2019-03-09T11:00:35.164Z,99873.72
2019-03-09T11:03:03.415Z,99861.03
2019-03-09T11:05:31.761Z,99871.54
2019-03-09T11:08:00.028Z,99877.17
2019-03-09T11:10:28.367Z,99890.05
2019-03-09T11:12:59.883Z,99889.22
2019-03-09T11:15:29.346Z,99890.28
2019-03-09T11:17:57.613Z,99878.63
2019-03-09T11:20:26.445Z,99881.84
2019-03-09T11:22:54.714Z,99882.38
2019-03-09T11:25:22.992Z,99889.93
2019-03-09T11:27:51.250Z,99889.02
2019-03-09T11:30:28.470Z,99908.39
2019-03-09T11:32:56.740Z,99913.14
2019-03-09T11:35:25.043Z,99909.04
2019-03-09T11:37:53.300Z,99900.70
2019-03-09T11:40:21.581Z,99908.11
2019-03-09T11:42:49.838Z,99905.26
2019-03-09T11:45:19.132Z,99891.66
2019-03-09T11:47:47.397Z,99898.48
2019-03-09T11:50:16.501Z,99883.31
2019-03-09T11:52:44.899Z,99888.89
2019-03-09T11:55:18.908Z,99884.27
2019-03-09T11:57:47.176Z,99884.00
2019-03-09T12:00:33.403Z,99867.83
2019-03-09T12:03:01.663Z,99868.63
2019-03-09T12:05:29.919Z,99861.72
2019-03-09T12:07:58.176Z,99864.86
2019-03-09T12:10:26.429Z,99860.63
2019-03-09T12:12:54.707Z,99851.01
2019-03-09T12:15:24.021Z,99855.75
2019-03-09T12:17:53.402Z,99856.42
2019-03-09T12:20:23.295Z,99861.44
2019-03-09T12:22:51.560Z,99851.32
2019-03-09T12:25:19.818Z,99841.29
2019-03-09T12:27:48.087Z,99850.81
2019-03-09T12:30:20.960Z,99852.27
2019-03-09T12:32:49.228Z,99839.66
2019-03-09T12:35:17.563Z,99821.58
2019-03-09T12:37:45.821Z,99812.50
2019-03-09T12:40:18.544Z,99807.22
2019-03-09T12:42:46.803Z,99815.83
2019-03-09T12:45:15.889Z,99805.74
2019-03-09T12:47:44.164Z,99805.31
2019-03-09T12:50:20.789Z,99803.08
2019-03-09T12:52:49.041Z,99815.45
2019-03-09T12:55:17.288Z,99800.97
2019-03-09T12:57:45.540Z,99796.88
2019-03-09T13:00:20.843Z,99802.55
2019-03-09T13:02:49.169Z,99795.30
2019-03-09T13:05:18.072Z,99804.86
2019-03-09T13:07:46.391Z,99797.25
2019-03-09T13:10:15.691Z,99792.42
2019-03-09T13:12:43.952Z,99793.61
2019-03-09T13:15:13.238Z,99788.40
2019-03-09T13:17:43.676Z,99771.39
2019-03-09T13:20:14.717Z,99775.03
2019-03-09T13:22:42.977Z,99771.41
2019-03-09T13:25:11.251Z,99775.31
2019-03-09T13:27:39.509Z,99766.66
2019-03-09T13:30:12.985Z,99774.52
2019-03-09T13:32:41.264Z,99758.94
2019-03-09T13:35:09.517Z,99758.31
2019-03-09T13:37:37.768Z,99756.33
2019-03-09T13:40:08.184Z,99754.78
2019-03-09T13:42:36.440Z,99756.42
2019-03-09T13:45:07.633Z,99750.30
2019-03-09T13:47:37.457Z,99754.29
2019-03-09T13:50:08.919Z,99760.14
2019-03-09T13:52:37.256Z,99754.30
2019-03-09T13:55:07.647Z,99753.64
2019-03-09T13:57:35.895Z,99756.07
2019-03-09T14:00:06.660Z,99739.40
2019-03-09T14:02:34.929Z,99741.00
2019-03-09T14:05:03.689Z,99737.56
2019-03-09T14:07:32.525Z,99729.08
2019-03-09T14:10:02.436Z,99714.33
2019-03-09T14:12:30.703Z,99706.67
2019-03-09T14:14:58.976Z,99698.02
2019-03-09T14:17:31.423Z,99676.80
2019-03-09T14:19:59.686Z,99685.55
2019-03-09T14:22:27.954Z,99676.25
2019-03-09T14:24:56.218Z,99683.23
2019-03-09T14:27:24.498Z,99683.36
2019-03-09T14:29:52.747Z,99656.20
2019-03-09T14:32:25.959Z,99666.80
2019-03-09T14:34:56.501Z,99659.33
2019-03-09T14:37:26.140Z,99640.99
2019-03-09T14:39:54.385Z,99627.03
2019-03-09T14:42:22.720Z,99614.00
2019-03-09T14:44:50.971Z,99613.25
2019-03-09T14:47:19.228Z,99615.90
2019-03-09T14:49:48.936Z,99603.19
2019-03-09T14:52:17.194Z,99593.93
2019-03-09T14:54:45.462Z,99586.53
2019-03-09T14:57:13.738Z,99580.06
2019-03-09T14:59:41.991Z,99579.33
2019-03-09T15:02:10.240Z,99583.66
2019-03-09T15:04:38.494Z,99578.08
2019-03-09T15:07:07.689Z,99567.84
2019-03-09T15:09:35.946Z,99566.47
2019-03-09T15:12:05.867Z,99579.27
2019-03-09T15:14:34.128Z,99573.41
2019-03-09T15:17:02.382Z,99576.50
2019-03-09T15:19:30.645Z,99585.01
2019-03-09T15:21:58.913Z,99573.58
2019-03-09T15:24:27.206Z,99575.53
2019-03-09T15:26:55.452Z,99554.43
2019-03-09T15:29:23.713Z,99540.86
2019-03-09T15:31:51.962Z,99535.66
2019-03-09T15:34:20.225Z,99523.85
2019-03-09T15:36:48.476Z,99520.03
2019-03-09T15:39:16.803Z,99516.41
2019-03-09T15:41:46.166Z,99493.26
2019-03-09T15:44:14.430Z,99483.78
2019-03-09T15:46:42.694Z,99476.24
2019-03-09T15:49:11.962Z,99464.90
2019-03-09T15:51:40.214Z,99461.88
2019-03-09T15:54:08.474Z,99459.56
2019-03-09T15:56:36.734Z,99455.66
2019-03-09T15:59:05.156Z,99438.50
2019-03-09T16:01:33.420Z,99416.78
2019-03-09T16:04:01.669Z,99404.61
2019-03-09T16:06:29.929Z,99393.06
2019-03-09T16:08:59.811Z,99392.59
2019-03-09T16:11:28.121Z,99381.15
2019-03-09T16:13:56.388Z,99392.05
2019-03-09T16:16:24.648Z,99389.14
2019-03-09T16:18:52.918Z,99397.52
2019-03-09T16:21:21.200Z,99408.64
2019-03-09T16:23:49.443Z,99445.00
2019-03-09T16:26:17.687Z,99461.72
2019-03-09T16:28:45.950Z,99461.46
2019-03-09T16:31:14.196Z,99449.91
2019-03-09T16:33:43.156Z,99437.05
2019-03-09T16:36:11.415Z,99438.22
2019-03-09T16:38:39.683Z,99428.60
2019-03-09T16:41:07.940Z,99417.48
2019-03-09T16:43:36.217Z,99403.33
2019-03-09T16:46:04.490Z,99403.34
2019-03-09T16:48:32.834Z,99400.08
2019-03-09T16:51:01.067Z,99400.25
2019-03-09T16:53:29.319Z,99399.03
2019-03-09T16:55:58.091Z,99400.06
2019-03-09T16:58:26.377Z,99400.06
2019-03-09T17:00:55.701Z,99408.94
2019-03-09T17:03:23.987Z,99406.34
2019-03-09T17:05:52.243Z,99402.38
2019-03-09T17:08:20.496Z,99411.38
2019-03-09T17:10:48.771Z,99415.42
2019-03-09T17:13:17.100Z,99430.61
2019-03-09T17:15:45.355Z,99426.08
2019-03-09T17:18:13.629Z,99424.83
2019-03-09T17:20:41.891Z,99428.63
2019-03-09T17:23:11.800Z,99424.69
2019-03-09T17:25:45.634Z,99425.69
2019-03-09T17:28:16.617Z,99416.91
2019-03-09T17:30:44.882Z,99419.49
2019-03-09T17:33:13.134Z,99430.78
2019-03-09T17:35:45.361Z,99430.61
2019-03-09T17:38:14.577Z,99427.83
2019-03-09T17:40:43.657Z,99440.44
2019-03-09T17:43:15.811Z,99450.54
2019-03-09T17:45:44.060Z,99487.38
2019-03-09T17:48:13.836Z,99516.19
2019-03-09T17:50:43.401Z,99514.49
2019-03-09T17:53:13.907Z,99506.03
2019-03-09T17:55:41.624Z,99547.09
2019-03-09T17:58:09.889Z,99565.65
2019-03-09T18:00:42.648Z,99584.47
2019-03-09T18:03:09.780Z,99610.22
2019-03-09T18:05:38.032Z,99633.48
2019-03-09T18:08:06.299Z,99630.95
2019-03-09T18:10:49.362Z,99651.28
2019-03-09T18:13:17.616Z,99662.07
2019-03-09T18:15:45.903Z,99684.22
2019-03-09T18:18:14.134Z,99695.11
2019-03-09T18:20:42.399Z,99701.05
2019-03-09T18:23:10.647Z,99720.34
2019-03-09T18:25:38.920Z,99724.48
2019-03-09T18:28:07.180Z,99743.44
2019-03-09T18:30:35.470Z,99752.53
2019-03-09T18:33:03.735Z,99771.60
2019-03-09T18:35:32.000Z,99771.60
2019-03-09T18:38:00.255Z,99790.77
2019-03-09T18:40:29.542Z,99800.02
2019-03-09T18:42:57.806Z,99815.86
2019-03-09T18:45:26.061Z,99830.27
2019-03-09T18:47:54.322Z,99835.17
2019-03-09T18:50:22.572Z,99846.02
2019-03-09T18:52:51.809Z,99845.18
2019-03-09T18:55:20.061Z,99851.70
2019-03-09T18:57:48.329Z,99879.39
2019-03-09T19:00:22.503Z,99886.37
2019-03-09T19:02:50.769Z,99914.03
2019-03-09T19:05:19.022Z,99922.23
2019-03-09T19:07:47.279Z,99917.58
2019-03-09T19:10:21.371Z,99920.16
2019-03-09T19:12:49.629Z,99932.58
2019-03-09T19:15:19.429Z,99922.06
2019-03-09T19:17:47.858Z,99924.50
2019-03-09T19:20:17.159Z,99930.90
2019-03-09T19:22:45.414Z,99909.52
2019-03-09T19:25:14.528Z,99916.77
2019-03-09T19:27:42.850Z,99920.65
2019-03-09T19:30:20.107Z,99916.05
2019-03-09T19:32:48.369Z,99915.09
2019-03-09T19:35:19.658Z,99917.04
2019-03-09T19:37:47.911Z,99923.83
2019-03-09T19:40:18.373Z,99930.75
2019-03-09T19:42:46.626Z,99934.76
2019-03-09T19:45:23.932Z,99938.70
2019-03-09T19:47:53.727Z,99927.39
2019-03-09T19:50:23.385Z,99942.97
2019-03-09T19:52:51.645Z,99949.10
2019-03-09T19:55:19.912Z,99939.93
2019-03-09T19:57:48.170Z,99940.83
2019-03-09T20:00:17.765Z,99943.87
2019-03-09T20:02:46.016Z,99943.69
2019-03-09T20:05:14.358Z,99935.03
2019-03-09T20:07:42.617Z,99928.38
2019-03-09T20:10:15.709Z,99934.27
2019-03-09T20:12:43.951Z,99942.94
2019-03-09T20:15:16.558Z,99945.58
2019-03-09T20:17:45.848Z,99946.28
2019-03-09T20:20:15.449Z,99959.49
2019-03-09T20:22:43.703Z,99961.95
2019-03-09T20:25:12.269Z,99964.63
2019-03-09T20:27:40.516Z,99965.38
2019-03-09T20:30:22.130Z,99955.80
2019-03-09T20:32:50.405Z,99979.42
2019-03-09T20:35:18.742Z,99982.15
2019-03-09T20:37:47.019Z,100003.89
2019-03-09T20:40:17.301Z,100009.00
2019-03-09T20:42:45.555Z,100016.06
2019-03-09T20:45:21.531Z,100021.50
2019-03-09T20:47:49.785Z,100017.30
2019-03-09T20:50:22.811Z,100023.63
2019-03-09T20:52:51.325Z,100032.23
2019-03-09T20:55:19.579Z,100021.94
2019-03-09T20:57:47.856Z,100034.14
2019-03-09T21:00:18.223Z,100032.91
2019-03-09T21:02:46.500Z,100032.30
2019-03-09T21:05:14.830Z,100030.69
2019-03-09T21:07:43.088Z,100029.07
2019-03-09T21:10:13.591Z,100027.00
2019-03-09T21:13:01.514Z,100027.97
2019-03-09T21:15:29.785Z,100034.89
2019-03-09T21:17:58.057Z,100047.98
2019-03-09T21:20:26.383Z,100046.50
2019-03-09T21:22:54.644Z,100047.80
2019-03-09T21:25:22.919Z,100035.23
2019-03-09T21:27:51.182Z,100039.12
2019-03-09T21:30:19.455Z,100017.35
2019-03-09T21:32:47.703Z,100036.20
2019-03-09T21:35:15.961Z,100026.23
2019-03-09T21:37:44.228Z,100045.02
2019-03-09T21:40:12.574Z,100059.95
2019-03-09T21:42:40.847Z,100079.02
2019-03-09T21:45:14.294Z,100131.41
2019-03-09T21:47:42.612Z,100173.41
2019-03-09T21:50:13.086Z,100138.30
2019-03-09T21:52:41.359Z,100124.59
2019-03-09T21:55:15.712Z,100131.18
2019-03-09T21:57:43.987Z,100129.49
2019-03-09T22:00:20.326Z,100126.80
2019-03-09T22:02:50.385Z,100136.64
2019-03-09T22:05:18.581Z,100131.48
2019-03-09T22:07:46.858Z,100138.98
2019-03-09T22:10:15.116Z,100140.28
2019-03-09T22:12:43.472Z,100146.24
2019-03-09T22:15:15.194Z,100143.61
2019-03-09T22:17:43.466Z,100159.56
2019-03-09T22:20:12.871Z,100158.42
2019-03-09T22:22:41.154Z,100161.25
2019-03-09T22:25:11.916Z,100154.79
2019-03-09T22:27:40.270Z,100144.61
2019-03-09T22:30:16.197Z,100148.67
2019-03-09T22:32:44.450Z,100140.06
2019-03-09T22:35:13.262Z,100131.08
2019-03-09T22:37:41.539Z,100135.89
2019-03-09T22:40:14.934Z,100142.66
2019-03-09T22:42:43.221Z,100143.45
2019-03-09T22:45:12.507Z,100127.27
2019-03-09T22:47:40.795Z,100127.09
2019-03-09T22:50:11.812Z,100136.16
2019-03-09T22:52:40.071Z,100141.11
2019-03-09T22:55:09.463Z,100122.26
2019-03-09T22:57:37.717Z,100125.07
2019-03-09T23:00:20.224Z,100129.46
2019-03-09T23:02:48.482Z,100134.64
2019-03-09T23:05:16.841Z,100130.31
2019-03-09T23:07:45.096Z,100132.83
2019-03-09T23:10:16.121Z,100135.42
2019-03-09T23:12:44.386Z,100138.97
2019-03-09T23:15:14.378Z,100144.20
2019-03-09T23:17:42.643Z,100140.26
2019-03-09T23:20:12.555Z,100125.58
2019-03-09T23:22:40.836Z,100130.59
2019-03-09T23:25:10.640Z,100138.46
2019-03-09T23:27:38.973Z,100136.89
2019-03-09T23:30:13.316Z,100138.23
2019-03-09T23:32:41.569Z,100152.80
2019-03-09T23:35:09.824Z,100149.83
2019-03-09T23:37:38.105Z,100148.59
2019-03-09T23:40:14.656Z,100156.34
2019-03-09T23:42:42.924Z,100167.16
2019-03-09T23:45:13.696Z,100174.91
2019-03-09T23:47:41.960Z,100172.75
2019-03-09T23:50:15.308Z,100183.55
2019-03-09T23:52:43.583Z,100178.12
2019-03-09T23:55:21.390Z,100185.16
2019-03-09T23:57:42.504Z,100182.45
